Time;durP1;ratioP1;P1;durP2;ratioP2;P2;SDS_P1;SDS_P2;PMS_P1;PMS_P2;Temp;Humidity;BMP_temperature;BMP_pressure;BME280_temperature;BME280_humidity;BME280_pressure;Samples;Min_cycle;Max_cycle;Signal;HPM_P1;HPM_P2
2021/12/03 00:00:16;;;;;;;5.18;3.65;;;4.30;94.90;;;;;;4972128;28;20045;-89
2021/12/03 00:02:44;;;;;;;6.10;3.40;;;4.30;95.00;;;;;;4980465;28;20042;-90
2021/12/03 00:05:10;;;;;;;5.32;3.28;;;4.30;95.10;;;;;;4995869;28;20066;-89
2021/12/03 00:07:39;;;;;;;4.65;3.42;;;4.30;95.10;;;;;;4959159;28;20285;-89
2021/12/03 00:10:12;;;;;;;5.80;3.25;;;4.30;95.10;;;;;;4996464;28;20547;-90
2021/12/03 00:12:45;;;;;;;5.72;3.83;;;4.30;95.20;;;;;;4981421;28;20084;-90
2021/12/03 00:15:14;;;;;;;6.55;3.33;;;4.30;95.30;;;;;;4977532;28;20041;-90
2021/12/03 00:17:41;;;;;;;4.28;3.88;;;4.30;95.30;;;;;;4967809;28;20279;-90
2021/12/03 00:20:13;;;;;;;5.15;3.80;;;4.30;95.30;;;;;;4963971;28;20296;-90
2021/12/03 00:22:40;;;;;;;14.05;3.83;;;4.40;95.20;;;;;;4991991;28;20239;-90
2021/12/03 00:25:09;;;;;;;8.48;3.72;;;4.30;95.00;;;;;;4964740;28;20312;-90
2021/12/03 00:27:36;;;;;;;4.93;3.80;;;4.30;95.00;;;;;;4991334;28;20664;-90
2021/12/03 00:30:07;;;;;;;4.38;3.33;;;4.40;95.00;;;;;;4987080;28;20177;-90
2021/12/03 00:32:33;;;;;;;4.97;3.60;;;4.30;94.90;;;;;;4967211;28;20082;-90
2021/12/03 00:34:59;;;;;;;7.13;3.85;;;4.30;94.90;;;;;;4979820;28;20069;-91
2021/12/03 00:37:28;;;;;;;5.97;3.90;;;4.30;94.80;;;;;;4951627;28;20042;-90
2021/12/03 00:39:54;;;;;;;6.28;3.63;;;4.30;94.90;;;;;;4964724;28;20030;-90
2021/12/03 00:42:20;;;;;;;7.50;4.45;;;4.30;94.90;;;;;;4984985;28;20069;-89
2021/12/03 00:44:51;;;;;;;7.70;3.67;;;4.30;94.90;;;;;;4976853;28;20034;-91
2021/12/03 00:47:19;;;;;;;7.40;4.45;;;4.30;94.90;;;;;;4965880;28;20406;-90
2021/12/03 00:49:45;;;;;;;6.05;4.20;;;4.20;94.80;;;;;;4973284;28;20026;-90
2021/12/03 00:52:11;;;;;;;4.97;4.05;;;4.20;94.80;;;;;;4979247;28;20058;-90
2021/12/03 00:54:37;;;;;;;5.65;3.38;;;4.30;94.80;;;;;;4956697;28;20493;-89
2021/12/03 00:57:03;;;;;;;6.63;3.67;;;4.20;94.70;;;;;;4978633;28;20113;-90
2021/12/03 00:59:31;;;;;;;5.85;3.97;;;4.20;94.70;;;;;;4990629;28;20034;-90
2021/12/03 01:01:57;;;;;;;6.20;4.40;;;4.20;94.70;;;;;;4962693;28;20038;-89
2021/12/03 01:04:23;;;;;;;5.95;4.18;;;4.20;94.80;;;;;;4975547;28;20566;-90
2021/12/03 01:06:48;;;;;;;7.97;4.25;;;4.20;94.80;;;;;;4983582;28;20030;-89
2021/12/03 01:09:14;;;;;;;6.85;3.90;;;4.20;94.90;;;;;;4979433;28;20531;-90
2021/12/03 01:11:42;;;;;;;6.55;4.72;;;4.20;94.80;;;;;;4964211;28;20230;-89
2021/12/03 01:14:10;;;;;;;8.00;4.68;;;4.20;94.80;;;;;;4994084;28;20407;-90
2021/12/03 01:16:38;;;;;;;5.00;4.20;;;4.10;94.70;;;;;;4973756;28;20240;-89
2021/12/03 01:19:04;;;;;;;5.60;4.15;;;4.10;94.70;;;;;;4985491;28;20026;-89
2021/12/03 01:21:29;;;;;;;6.28;4.68;;;4.10;94.70;;;;;;4966811;28;20034;-89
2021/12/03 01:23:55;;;;;;;6.28;4.22;;;4.10;94.70;;;;;;4993390;28;20154;-89
2021/12/03 01:26:24;;;;;;;7.70;4.47;;;4.10;94.70;;;;;;4960732;28;20104;-90
2021/12/03 01:28:50;;;;;;;6.43;4.68;;;4.10;94.70;;;;;;4968621;28;20483;-89
2021/12/03 01:31:17;;;;;;;5.70;4.30;;;4.10;94.70;;;;;;4975463;28;20034;-90
2021/12/03 01:33:45;;;;;;;6.32;4.07;;;4.10;94.70;;;;;;4955447;28;20129;-90
2021/12/03 01:36:13;;;;;;;5.53;4.07;;;4.10;94.80;;;;;;4975009;28;20102;-90
2021/12/03 01:38:42;;;;;;;6.20;4.15;;;4.10;94.90;;;;;;4960061;28;20314;-90
2021/12/03 01:41:10;;;;;;;7.25;4.60;;;4.10;94.90;;;;;;4984835;28;20483;-90
2021/12/03 01:43:36;;;;;;;5.25;3.80;;;4.00;95.00;;;;;;4961777;28;20346;-89
2021/12/03 01:46:06;;;;;;;5.72;4.18;;;4.00;95.00;;;;;;4969639;28;20510;-90
2021/12/03 01:48:32;;;;;;;5.55;4.35;;;4.10;95.00;;;;;;4983283;28;20235;-90
2021/12/03 01:51:02;;;;;;;5.13;3.75;;;4.10;94.90;;;;;;4994370;28;20044;-90
2021/12/03 01:53:33;;;;;;;6.60;4.35;;;4.10;94.90;;;;;;4972407;28;20183;-90
2021/12/03 01:56:07;;;;;;;6.82;3.78;;;4.10;94.80;;;;;;4974773;28;20105;-90
2021/12/03 01:58:37;;;;;;;5.68;3.80;;;4.00;94.70;;;;;;4963590;28;20088;-90
2021/12/03 02:01:11;;;;;;;5.82;4.30;;;4.10;94.70;;;;;;4976278;28;20054;-89
2021/12/03 02:03:45;;;;;;;7.57;4.15;;;4.00;94.70;;;;;;4961161;28;20157;-89
2021/12/03 02:06:15;;;;;;;6.88;3.67;;;4.10;94.80;;;;;;4990550;28;20038;-90
2021/12/03 02:08:41;;;;;;;6.47;4.15;;;4.00;94.80;;;;;;4976254;28;20376;-90
2021/12/03 02:11:09;;;;;;;9.25;4.90;;;4.00;94.80;;;;;;4975572;28;20243;-89
2021/12/03 02:13:38;;;;;;;6.68;4.20;;;4.00;94.80;;;;;;4969705;28;20129;-90
2021/12/03 02:16:05;;;;;;;6.85;4.25;;;4.00;94.80;;;;;;4975423;28;20479;-89
2021/12/03 02:18:30;;;;;;;9.93;4.90;;;4.00;94.80;;;;;;4962572;28;20042;-90
2021/12/03 02:21:00;;;;;;;8.35;5.03;;;4.00;94.80;;;;;;4993316;28;20136;-89
2021/12/03 02:23:29;;;;;;;7.43;4.00;;;4.00;94.80;;;;;;4978108;28;20038;-90
2021/12/03 02:25:56;;;;;;;7.40;5.43;;;4.00;94.90;;;;;;4977097;28;20286;-90
2021/12/03 02:28:27;;;;;;;6.53;4.38;;;4.00;94.90;;;;;;4969652;28;20061;-89
2021/12/03 02:30:54;;;;;;;9.40;5.60;;;4.00;95.00;;;;;;4963779;28;20319;-89
2021/12/03 02:33:20;;;;;;;11.23;5.88;;;4.00;95.00;;;;;;4996702;28;20027;-89
2021/12/03 02:35:46;;;;;;;8.20;5.20;;;4.00;95.10;;;;;;4969909;28;20387;-90
2021/12/03 02:38:16;;;;;;;6.20;4.68;;;4.00;95.20;;;;;;4996303;28;20434;-90
2021/12/03 02:40:44;;;;;;;8.73;5.20;;;4.00;95.30;;;;;;4981629;28;20070;-89
2021/12/03 02:43:10;;;;;;;11.65;6.35;;;4.00;95.40;;;;;;4996040;28;20306;-89
2021/12/03 02:45:36;;;;;;;7.25;4.75;;;4.10;95.40;;;;;;4966286;28;20034;-89
2021/12/03 02:48:04;;;;;;;9.80;5.75;;;4.10;95.40;;;;;;4978139;28;20663;-90
2021/12/03 02:50:31;;;;;;;8.07;4.57;;;4.10;95.40;;;;;;4971498;28;20117;-90
2021/12/03 02:52:57;;;;;;;8.73;4.70;;;4.10;95.30;;;;;;4976696;28;20243;-90
2021/12/03 02:55:23;;;;;;;8.68;4.85;;;4.10;95.30;;;;;;4978054;28;20128;-89
2021/12/03 02:57:49;;;;;;;11.10;5.50;;;4.10;95.40;;;;;;4970320;28;20172;-89
2021/12/03 03:00:18;;;;;;;8.60;4.78;;;4.10;95.50;;;;;;4964850;28;20034;-89
2021/12/03 03:02:46;;;;;;;6.78;4.53;;;4.20;95.60;;;;;;4973804;28;20050;-89
2021/12/03 03:05:17;;;;;;;11.55;5.32;;;4.20;95.70;;;;;;4972660;28;20485;-90
2021/12/03 03:07:42;;;;;;;8.05;4.60;;;4.20;95.70;;;;;;4995045;28;20030;-89
2021/12/03 03:10:10;;;;;;;12.07;5.35;;;4.20;95.80;;;;;;4985062;28;20038;-88
2021/12/03 03:12:37;;;;;;;9.45;5.38;;;4.30;95.80;;;;;;4979142;28;20555;-89
2021/12/03 03:15:05;;;;;;;8.38;4.95;;;4.30;95.80;;;;;;4967392;28;22706;-89
2021/12/03 03:17:31;;;;;;;8.07;4.65;;;4.30;95.80;;;;;;4963015;28;20030;-89
2021/12/03 03:19:59;;;;;;;10.38;5.47;;;4.30;95.90;;;;;;4978846;28;20248;-88
2021/12/03 03:22:25;;;;;;;8.70;4.35;;;4.40;95.90;;;;;;4971440;28;20553;-88
2021/12/03 03:24:52;;;;;;;8.60;4.70;;;4.40;95.90;;;;;;4967971;28;20026;-88
2021/12/03 03:27:19;;;;;;;9.93;4.55;;;4.40;95.80;;;;;;4996275;28;20026;-88
2021/12/03 03:29:46;;;;;;;12.05;4.80;;;4.50;95.80;;;;;;4987393;28;20531;-87
2021/12/03 03:32:12;;;;;;;8.95;4.40;;;4.50;95.70;;;;;;4976574;28;20084;-88
2021/12/03 03:34:38;;;;;;;14.18;4.80;;;4.50;95.70;;;;;;4995157;28;20034;-88
2021/12/03 03:37:07;;;;;;;8.57;4.18;;;4.50;95.70;;;;;;4961849;28;21769;-89
2021/12/03 03:39:33;;;;;;;6.50;4.18;;;4.50;95.70;;;;;;4979669;28;20050;-88
2021/12/03 03:41:59;;;;;;;11.07;4.72;;;4.50;95.60;;;;;;4976142;28;20034;-89
2021/12/03 03:44:25;;;;;;;7.32;3.70;;;4.60;95.60;;;;;;4979012;28;20467;-89
2021/12/03 03:46:52;;;;;;;6.57;4.05;;;4.60;95.60;;;;;;4962347;28;20050;-88
2021/12/03 03:49:19;;;;;;;6.93;3.03;;;4.60;95.60;;;;;;4978354;28;20030;-89
2021/12/03 03:51:46;;;;;;;7.28;3.38;;;4.60;95.50;;;;;;4976726;28;20054;-90
2021/12/03 03:54:12;;;;;;;8.68;3.50;;;4.60;95.50;;;;;;4986210;28;20386;-89
2021/12/03 03:56:38;;;;;;;6.90;3.58;;;4.60;95.40;;;;;;4976773;28;20030;-88
2021/12/03 03:59:04;;;;;;;6.82;3.97;;;4.60;95.30;;;;;;4994502;28;20053;-88
2021/12/03 04:01:30;;;;;;;8.80;4.05;;;4.50;95.10;;;;;;4970971;28;20064;-88
2021/12/03 04:03:56;;;;;;;7.53;3.28;;;4.50;95.00;;;;;;4961936;28;20057;-89
2021/12/03 04:06:23;;;;;;;8.68;3.67;;;4.50;95.00;;;;;;4967427;28;20335;-88
2021/12/03 04:08:49;;;;;;;10.25;3.78;;;4.50;94.90;;;;;;4968290;28;20495;-88
2021/12/03 04:11:18;;;;;;;6.72;2.83;;;4.40;94.90;;;;;;4978019;28;20165;-89
2021/12/03 04:13:44;;;;;;;8.15;3.40;;;4.40;94.80;;;;;;4975378;28;20125;-88
2021/12/03 04:16:10;;;;;;;6.55;2.83;;;4.40;94.80;;;;;;4984207;28;20190;-88
2021/12/03 04:18:36;;;;;;;8.07;3.10;;;4.40;94.80;;;;;;4975642;28;20046;-88
2021/12/03 04:21:02;;;;;;;9.93;3.35;;;4.40;94.80;;;;;;4966850;28;20096;-89
2021/12/03 04:23:28;;;;;;;9.27;3.53;;;4.30;95.00;;;;;;4972658;28;20504;-88
2021/12/03 04:25:54;;;;;;;7.60;3.13;;;4.30;94.70;;;;;;4964555;28;20374;-89
2021/12/03 04:28:21;;;;;;;7.75;3.28;;;4.30;94.70;;;;;;4995344;28;20118;-89
2021/12/03 04:30:48;;;;;;;8.75;3.08;;;4.30;94.70;;;;;;4962888;28;20483;-89
2021/12/03 04:33:14;;;;;;;8.13;3.38;;;4.20;94.60;;;;;;4980471;28;20364;-88
2021/12/03 04:35:40;;;;;;;7.28;3.03;;;4.20;94.60;;;;;;4958631;28;20038;-88
2021/12/03 04:38:06;;;;;;;5.85;3.05;;;4.20;94.60;;;;;;4971484;28;20547;-88
2021/12/03 04:40:33;;;;;;;10.18;3.78;;;4.20;94.60;;;;;;4970173;28;20048;-88
2021/12/03 04:42:59;;;;;;;10.88;3.83;;;4.10;94.80;;;;;;4983826;28;20145;-89
2021/12/03 04:45:27;;;;;;;6.32;3.03;;;4.10;94.60;;;;;;4981517;28;20109;-89
2021/12/03 04:47:56;;;;;;;6.15;3.30;;;4.20;94.60;;;;;;4975144;28;20173;-89
2021/12/03 04:50:24;;;;;;;6.90;2.88;;;4.10;94.50;;;;;;4994627;28;20050;-89
2021/12/03 04:52:53;;;;;;;6.72;3.30;;;4.10;94.60;;;;;;4967918;28;20129;-89
2021/12/03 04:55:19;;;;;;;7.35;3.22;;;4.10;94.60;;;;;;4993887;28;20736;-88
2021/12/03 04:57:45;;;;;;;7.28;2.90;;;4.10;94.70;;;;;;4981799;28;20046;-89
2021/12/03 05:00:22;;;;;;;8.48;3.70;;;4.10;94.70;;;;;;4979087;28;20050;-89
2021/12/03 05:02:50;;;;;;;6.75;3.90;;;4.10;94.70;;;;;;4967147;28;20566;-89
2021/12/03 05:05:15;;;;;;;8.55;3.45;;;4.10;94.70;;;;;;4979751;28;20128;-88
2021/12/03 05:10:08;;;;;;;6.45;2.90;;;4.10;94.70;;;;;;4979796;28;20475;-89
2021/12/03 05:12:35;;;;;;;5.85;2.90;;;4.10;94.80;;;;;;4963485;28;20125;-89
2021/12/03 05:15:01;;;;;;;10.40;2.75;;;4.10;94.90;;;;;;4984576;28;20453;-89
2021/12/03 05:17:26;;;;;;;8.25;2.97;;;4.10;94.90;;;;;;4992876;28;20501;-89
2021/12/03 05:19:55;;;;;;;7.38;3.17;;;4.10;94.90;;;;;;4967762;28;20034;-89
2021/12/03 05:22:21;;;;;;;9.25;2.88;;;4.10;95.00;;;;;;4965461;28;20638;-88
2021/12/03 05:24:48;;;;;;;11.20;3.28;;;4.20;95.10;;;;;;4986619;28;20046;-89
2021/12/03 05:27:18;;;;;;;8.00;2.75;;;4.10;95.00;;;;;;4971448;28;20046;-89
2021/12/03 05:29:46;;;;;;;7.35;2.92;;;4.20;95.00;;;;;;4977616;28;20034;-89
2021/12/03 05:32:12;;;;;;;7.53;3.00;;;4.20;95.00;;;;;;4985363;28;20099;-89
2021/12/03 05:34:39;;;;;;;8.60;2.50;;;4.20;95.00;;;;;;4989219;28;20424;-89
2021/12/03 05:37:10;;;;;;;9.73;3.20;;;4.20;95.00;;;;;;4959806;28;20552;-89
2021/12/03 05:39:40;;;;;;;8.27;2.90;;;4.20;95.00;;;;;;4974451;28;20551;-89
2021/12/03 05:42:09;;;;;;;8.52;2.90;;;4.30;95.00;;;;;;4977626;28;20273;-89
2021/12/03 05:44:40;;;;;;;7.45;2.60;;;4.20;94.90;;;;;;4966947;28;20030;-89
2021/12/03 05:47:06;;;;;;;7.47;2.78;;;4.30;94.80;;;;;;4974523;28;20542;-89
2021/12/03 05:49:35;;;;;;;8.25;3.08;;;4.20;94.90;;;;;;4970790;28;20065;-89
2021/12/03 05:52:01;;;;;;;7.18;2.50;;;4.30;94.90;;;;;;4970241;28;20956;-89
2021/12/03 05:54:27;;;;;;;7.50;2.95;;;4.30;95.20;;;;;;4965226;28;20030;-89
2021/12/03 05:56:56;;;;;;;8.65;2.55;;;4.30;94.80;;;;;;4986521;28;20049;-89
2021/12/03 05:59:22;;;;;;;5.57;2.60;;;4.30;94.80;;;;;;4967993;28;20161;-89
2021/12/03 06:01:49;;;;;;;6.40;3.10;;;4.30;94.80;;;;;;4966802;28;20054;-88
2021/12/03 06:04:16;;;;;;;7.85;2.92;;;4.30;94.80;;;;;;4974861;28;20026;-89
2021/12/03 06:06:44;;;;;;;8.95;2.97;;;4.30;94.80;;;;;;4992216;28;20610;-89
2021/12/03 06:09:15;;;;;;;11.20;4.05;;;4.20;95.30;;;;;;4952723;28;20121;-89
2021/12/03 06:11:41;;;;;;;9.52;3.45;;;4.30;94.80;;;;;;4992019;28;20034;-89
2021/12/03 06:14:09;;;;;;;8.00;2.70;;;4.30;94.80;;;;;;4968150;28;20402;-89
2021/12/03 06:16:35;;;;;;;8.27;2.42;;;4.30;94.90;;;;;;4957781;28;20194;-89
2021/12/03 06:19:00;;;;;;;7.60;3.45;;;4.30;94.90;;;;;;4976932;28;20043;-89
2021/12/03 06:21:30;;;;;;;8.30;2.63;;;4.30;95.00;;;;;;4979161;28;20064;-89
2021/12/03 06:23:59;;;;;;;8.70;3.47;;;4.30;95.10;;;;;;4960700;28;20664;-89
2021/12/03 06:26:25;;;;;;;12.70;3.78;;;4.30;95.00;;;;;;4985334;28;20279;-89
2021/12/03 06:28:51;;;;;;;6.85;2.90;;;4.30;95.00;;;;;;4978126;28;20058;-88
2021/12/03 06:31:16;;;;;;;6.80;3.00;;;4.30;95.20;;;;;;4966321;28;20503;-89
2021/12/03 06:33:42;;;;;;;10.00;3.90;;;4.30;95.20;;;;;;4990652;28;20471;-89
2021/12/03 06:36:08;;;;;;;8.93;3.97;;;4.40;95.20;;;;;;4976291;28;20390;-88
2021/12/03 06:38:34;;;;;;;6.63;3.38;;;4.40;95.20;;;;;;4973202;28;20073;-89
2021/12/03 06:41:02;;;;;;;14.77;3.55;;;4.40;95.20;;;;;;4976014;28;20049;-89
2021/12/03 06:43:28;;;;;;;5.85;3.00;;;4.40;95.20;;;;;;4989365;28;20137;-88
2021/12/03 06:45:54;;;;;;;7.13;3.45;;;4.50;95.30;;;;;;4968758;28;20026;-88
2021/12/03 06:48:20;;;;;;;15.10;3.65;;;4.50;95.40;;;;;;4978542;28;20124;-89
2021/12/03 06:50:49;;;;;;;10.00;3.55;;;4.50;95.40;;;;;;4994020;28;20018;-88
2021/12/03 06:53:16;;;;;;;6.78;3.35;;;4.50;95.30;;;;;;4971097;28;20027;-89
2021/12/03 06:55:47;;;;;;;6.82;2.42;;;4.60;95.50;;;;;;4942685;28;20248;-88
2021/12/03 06:58:16;;;;;;;9.75;3.15;;;4.60;95.70;;;;;;4966598;28;20060;-89
2021/12/03 07:00:43;;;;;;;8.98;2.75;;;4.60;95.30;;;;;;4988621;28;20251;-89
2021/12/03 07:03:09;;;;;;;7.88;2.90;;;4.60;95.50;;;;;;4989404;28;20117;-88
2021/12/03 07:05:34;;;;;;;6.20;2.80;;;4.60;95.40;;;;;;4964342;28;20653;-88
2021/12/03 07:08:00;;;;;;;6.57;2.78;;;4.70;95.40;;;;;;4978854;28;20034;-89
2021/12/03 07:10:27;;;;;;;7.38;2.80;;;4.70;95.40;;;;;;4974899;28;20062;-89
2021/12/03 07:12:55;;;;;;;10.88;3.13;;;4.70;95.40;;;;;;4966853;28;20023;-88
2021/12/03 07:15:21;;;;;;;8.57;2.72;;;4.70;95.30;;;;;;4976279;28;20034;-88
2021/12/03 07:17:50;;;;;;;4.70;2.17;;;4.70;95.30;;;;;;4980144;28;20446;-88
2021/12/03 07:20:17;;;;;;;7.57;3.03;;;4.80;95.40;;;;;;4978091;28;20037;-89
2021/12/03 07:22:46;;;;;;;5.45;2.78;;;4.80;95.30;;;;;;4993735;28;20113;-89
2021/12/03 07:25:12;;;;;;;7.43;2.63;;;4.80;95.30;;;;;;4988361;28;20156;-89
2021/12/03 07:27:38;;;;;;;10.32;3.15;;;4.80;95.30;;;;;;4960494;28;20259;-89
2021/12/03 07:30:05;;;;;;;6.95;2.92;;;4.80;95.40;;;;;;4968511;28;20022;-89
2021/12/03 07:32:31;;;;;;;6.93;2.70;;;4.80;95.40;;;;;;4975169;28;20613;-89
2021/12/03 07:34:58;;;;;;;5.93;2.20;;;4.80;95.30;;;;;;4982895;28;20607;-89
2021/12/03 07:37:24;;;;;;;5.90;2.42;;;4.80;95.40;;;;;;4979751;28;20200;-89
2021/12/03 07:39:50;;;;;;;8.95;2.53;;;4.90;95.40;;;;;;4985761;28;20469;-89
2021/12/03 07:42:16;;;;;;;5.85;2.33;;;4.90;95.60;;;;;;4976079;28;20042;-89
2021/12/03 07:44:42;;;;;;;5.75;3.17;;;4.90;95.60;;;;;;4967663;28;20050;-89
2021/12/03 07:47:09;;;;;;;12.50;3.08;;;5.00;95.50;;;;;;4977222;28;20589;-89
2021/12/03 07:49:35;;;;;;;7.63;2.90;;;5.00;95.50;;;;;;4964147;28;20031;-89
2021/12/03 07:52:02;;;;;;;6.70;2.65;;;5.00;95.70;;;;;;4974150;28;20125;-89
2021/12/03 07:54:27;;;;;;;6.18;2.50;;;5.00;95.70;;;;;;4977287;28;20222;-89
2021/12/03 07:56:56;;;;;;;6.18;2.85;;;5.10;95.70;;;;;;4969211;28;20044;-90
2021/12/03 07:59:21;;;;;;;9.35;2.45;;;5.10;95.80;;;;;;4954320;28;20047;-89
2021/12/03 08:01:47;;;;;;;7.50;3.25;;;5.10;95.80;;;;;;4993087;28;20382;-89
2021/12/03 08:04:14;;;;;;;4.65;2.60;;;5.20;95.90;;;;;;4974875;28;20148;-89
2021/12/03 08:06:41;;;;;;;5.85;2.40;;;5.20;95.80;;;;;;4974220;28;20030;-89
2021/12/03 08:09:08;;;;;;;7.60;3.33;;;5.20;95.80;;;;;;4991127;28;20038;-89
2021/12/03 08:11:34;;;;;;;5.60;2.47;;;5.20;95.80;;;;;;4973955;28;20042;-89
2021/12/03 08:14:00;;;;;;;7.90;3.88;;;5.30;95.80;;;;;;4961924;28;20174;-89
2021/12/03 08:16:25;;;;;;;7.57;3.00;;;5.30;95.80;;;;;;4969946;28;20343;-89
2021/12/03 08:18:52;;;;;;;4.93;2.88;;;5.30;95.80;;;;;;4978710;28;20038;-89
2021/12/03 08:21:21;;;;;;;6.85;3.28;;;5.40;95.80;;;;;;4967830;28;20315;-89
2021/12/03 08:23:48;;;;;;;5.82;2.22;;;5.40;95.90;;;;;;4974193;28;20062;-89
2021/12/03 08:26:15;;;;;;;5.88;2.88;;;5.40;95.80;;;;;;4975947;28;20695;-89
2021/12/03 08:28:40;;;;;;;8.15;2.88;;;5.40;95.60;;;;;;4956312;28;20031;-89
2021/12/03 08:31:07;;;;;;;5.20;2.65;;;5.40;95.60;;;;;;4992492;28;20475;-89
2021/12/03 08:33:33;;;;;;;4.18;2.25;;;5.40;95.70;;;;;;4995437;28;20065;-89
2021/12/03 08:35:58;;;;;;;6.47;2.55;;;5.50;95.90;;;;;;4977176;28;20034;-90
2021/12/03 08:38:24;;;;;;;5.18;2.20;;;5.50;95.80;;;;;;4992445;28;20381;-90
2021/12/03 08:40:50;;;;;;;5.78;3.08;;;5.50;95.80;;;;;;4993443;28;20040;-91
2021/12/03 08:43:16;;;;;;;9.95;3.97;;;5.50;96.00;;;;;;4944164;28;20442;-90
2021/12/03 08:45:42;;;;;;;9.55;2.92;;;5.60;95.50;;;;;;4963043;28;21597;-90
2021/12/03 08:48:07;;;;;;;5.40;2.80;;;5.60;95.90;;;;;;4992539;28;20033;-90
2021/12/03 08:50:36;;;;;;;6.57;2.85;;;5.60;95.70;;;;;;4994775;28;20430;-90
2021/12/03 08:55:32;;;;;;;9.80;4.35;;;5.70;95.80;;;;;;4970894;28;20494;-90
2021/12/03 08:57:58;;;;;;;6.93;3.05;;;5.70;95.90;;;;;;4977964;28;20034;-90
2021/12/03 09:00:24;;;;;;;9.25;4.00;;;5.70;96.00;;;;;;4947236;28;21972;-90
2021/12/03 09:02:50;;;;;;;7.18;3.80;;;5.70;95.60;;;;;;4979868;28;20156;-90
2021/12/03 09:05:16;;;;;;;7.30;3.67;;;5.70;95.80;;;;;;4991034;28;20061;-90
2021/12/03 09:07:43;;;;;;;6.70;3.50;;;5.80;96.30;;;;;;4972258;28;20018;-90
2021/12/03 09:10:12;;;;;;;11.85;4.53;;;5.80;96.30;;;;;;4974554;28;20034;-91
2021/12/03 09:12:38;;;;;;;8.02;3.53;;;5.90;95.80;;;;;;4973226;28;20026;-90
2021/12/03 09:15:08;;;;;;;6.65;3.60;;;5.90;96.20;;;;;;4979059;28;20351;-89
2021/12/03 09:17:44;;;;;;;10.43;4.53;;;5.90;96.30;;;;;;4988520;28;20360;-90
2021/12/03 09:22:48;;;;;;;9.25;4.45;;;6.00;96.10;;;;;;4968813;28;20100;-90
2021/12/03 09:25:21;;;;;;;6.22;3.53;;;6.10;96.00;;;;;;4982789;28;20399;-90
2021/12/03 09:27:47;;;;;;;7.25;3.90;;;6.10;95.90;;;;;;4980132;28;20038;-90
2021/12/03 09:30:15;;;;;;;8.35;3.47;;;6.10;96.10;;;;;;4952506;28;20303;-91
2021/12/03 09:32:45;;;;;;;7.00;3.55;;;6.10;96.20;;;;;;4979713;28;20037;-90
2021/12/03 09:35:11;;;;;;;9.00;4.30;;;6.20;96.10;;;;;;4975087;28;20458;-90
2021/12/03 09:37:37;;;;;;;10.95;4.47;;;6.20;95.50;;;;;;4962462;28;20039;-89
2021/12/03 09:40:07;;;;;;;9.95;4.05;;;6.30;95.90;;;;;;4992342;28;20041;-89
2021/12/03 09:42:37;;;;;;;8.15;4.25;;;6.30;95.70;;;;;;4968636;28;20042;-90
2021/12/03 09:45:07;;;;;;;9.32;4.35;;;6.30;95.80;;;;;;4969298;28;20033;-91
2021/12/03 09:47:33;;;;;;;7.65;4.03;;;6.40;96.20;;;;;;4978407;28;20030;-90
2021/12/03 09:50:01;;;;;;;9.25;3.88;;;6.40;96.40;;;;;;4992584;28;20030;-90
2021/12/03 09:52:37;;;;;;;10.05;4.05;;;6.40;96.20;;;;;;4957395;28;20037;-90
2021/12/03 09:55:09;;;;;;;6.43;3.92;;;6.50;95.90;;;;;;4977368;28;20422;-90
2021/12/03 10:14:03;;;;;;;7.30;3.65;;;6.60;95.70;;;;;;4977606;28;20027;-91
2021/12/03 10:18:59;;;;;;;10.70;4.32;;;6.70;95.60;;;;;;4930999;28;20042;-91
2021/12/03 10:30:11;;;;;;;7.57;3.95;;;6.90;95.80;;;;;;4977982;28;20041;-90
2021/12/03 10:32:48;;;;;;;6.15;3.67;;;6.90;95.50;;;;;;4954775;28;20038;-89
2021/12/03 10:36:00;;;;;;;7.85;3.83;;;6.90;95.50;;;;;;4989658;28;20229;-88
2021/12/03 10:46:29;;;;;;;5.32;3.50;;;7.10;95.60;;;;;;4982403;28;20034;-90
2021/12/03 10:59:45;;;;;;;4.70;3.30;;;7.30;95.60;;;;;;4978216;28;20062;-90
2021/12/03 11:05:49;;;;;;;6.15;3.92;;;7.40;95.00;;;;;;4922569;28;20031;-89
2021/12/03 11:13:24;;;;;;;4.88;3.03;;;7.40;95.90;;;;;;4940768;28;20027;-90
2021/12/03 11:27:11;;;;;;;5.15;3.25;;;7.50;94.60;;;;;;4953690;28;20700;-89
2021/12/03 11:54:19;;;;;;;5.68;3.60;;;7.60;94.30;;;;;;4978277;28;20057;-89
2021/12/03 11:56:59;;;;;;;5.70;3.30;;;7.60;94.90;;;;;;4980255;28;20061;-90
2021/12/03 12:36:15;;;;;;;7.90;3.42;;;7.70;92.10;;;;;;4978248;28;20046;-89
2021/12/03 13:08:29;;;;;;;5.47;2.90;;;7.50;94.70;;;;;;4950647;28;20038;-89
2021/12/03 14:20:03;;;;;;;2.55;2.20;;;7.20;94.50;;;;;;4973461;28;20054;-87
2021/12/03 14:44:28;;;;;;;3.88;2.97;;;7.10;94.50;;;;;;4979165;28;20457;-88
2021/12/03 14:50:44;;;;;;;4.05;2.60;;;7.10;95.20;;;;;;4981429;28;20538;-89
2021/12/03 14:55:50;;;;;;;4.43;2.58;;;7.00;95.20;;;;;;4981269;28;20077;-87
2021/12/03 14:58:19;;;;;;;3.60;2.72;;;7.00;95.00;;;;;;4952624;28;20117;-87
2021/12/03 15:06:19;;;;;;;2.97;2.35;;;7.00;95.40;;;;;;4958731;28;20049;-87
2021/12/03 15:14:23;;;;;;;1.95;1.85;;;7.00;95.10;;;;;;4965771;28;20129;-88
2021/12/03 15:19:09;;;;;;;2.15;2.00;;;7.00;95.10;;;;;;4971407;28;20173;-88
2021/12/03 15:22:02;;;;;;;4.20;2.88;;;7.00;95.40;;;;;;4995516;28;20057;-88
2021/12/03 15:32:43;;;;;;;3.50;2.15;;;7.00;95.30;;;;;;4966176;28;20105;-89
2021/12/03 15:35:28;;;;;;;3.47;2.35;;;7.00;95.00;;;;;;4965474;28;20035;-87
2021/12/03 16:04:22;;;;;;;1.90;1.80;;;7.00;95.50;;;;;;4977784;28;20034;-86
2021/12/03 16:11:47;;;;;;;2.08;1.90;;;7.00;95.50;;;;;;4967666;28;20268;-88
2021/12/03 16:24:59;;;;;;;2.00;1.80;;;7.00;95.50;;;;;;4970609;28;20034;-88
2021/12/03 16:46:52;;;;;;;1.80;1.50;;;7.00;95.20;;;;;;4979667;28;20041;-87
2021/12/03 16:51:50;;;;;;;1.95;1.65;;;7.00;95.00;;;;;;4969144;28;20476;-88
2021/12/03 16:54:24;;;;;;;2.38;2.17;;;6.90;95.00;;;;;;4994498;28;20034;-89
2021/12/03 16:56:52;;;;;;;2.50;2.30;;;6.90;95.10;;;;;;4963961;28;20315;-88
2021/12/03 16:59:18;;;;;;;1.95;1.75;;;6.80;95.00;;;;;;4945074;28;20035;-89
2021/12/03 17:56:32;;;;;;;2.55;2.33;;;6.80;95.80;;;;;;4969190;28;20112;-88
2021/12/03 17:59:14;;;;;;;2.22;2.00;;;6.90;95.90;;;;;;4969029;28;20138;-88
2021/12/03 18:02:04;;;;;;;3.22;2.55;;;6.90;96.00;;;;;;4977432;28;20046;-88
2021/12/03 18:07:30;;;;;;;3.00;2.70;;;6.90;96.00;;;;;;4966641;28;20182;-88
2021/12/03 18:10:25;;;;;;;2.85;2.28;;;7.00;96.00;;;;;;4974438;28;20034;-89
2021/12/03 18:13:14;;;;;;;;;;;7.00;95.90;;;;;;4963748;28;20232;-88
2021/12/03 18:48:39;;;;;;;2.30;1.90;;;6.90;95.40;;;;;;4954807;28;20034;-89
2021/12/03 18:51:07;;;;;;;2.60;1.98;;;6.90;95.50;;;;;;4956401;28;20401;-89
2021/12/03 18:54:21;;;;;;;1.63;1.50;;;6.80;95.50;;;;;;4970059;28;20038;-90
2021/12/03 18:56:33;;;;;;;2.13;1.92;;;6.90;95.60;;;;;;4966944;28;20046;-89
2021/12/03 18:59:03;;;;;;;1.65;1.55;;;6.80;95.60;;;;;;4966555;28;20438;-89
2021/12/03 19:01:31;;;;;;;2.10;1.90;;;6.80;95.70;;;;;;4973099;28;20054;-90
2021/12/03 19:09:32;;;;;;;1.70;1.60;;;6.70;95.70;;;;;;4976431;28;20128;-90
2021/12/03 19:14:28;;;;;;;2.47;1.95;;;6.80;95.80;;;;;;4977707;28;20445;-90
2021/12/03 19:16:54;;;;;;;2.15;1.80;;;6.80;95.80;;;;;;4962428;28;20046;-90
2021/12/03 19:19:20;;;;;;;1.95;1.75;;;6.80;95.80;;;;;;4978872;28;20030;-90
2021/12/03 19:21:48;;;;;;;1.92;1.70;;;6.80;95.90;;;;;;4974721;28;20053;-90
2021/12/03 19:24:15;;;;;;;2.40;2.03;;;6.80;95.90;;;;;;4977850;28;20307;-89
2021/12/03 19:26:43;;;;;;;2.20;1.90;;;6.80;95.90;;;;;;4962905;28;20299;-90
2021/12/03 19:29:13;;;;;;;2.58;2.38;;;6.80;95.90;;;;;;4969864;28;20026;-90
2021/12/03 19:31:40;;;;;;;2.58;2.38;;;6.80;96.00;;;;;;4967931;28;20023;-90
2021/12/03 19:34:08;;;;;;;2.40;2.03;;;6.80;96.00;;;;;;4985951;28;20081;-90
2021/12/03 19:36:39;;;;;;;1.98;1.88;;;6.80;96.00;;;;;;4963211;28;20101;-92
2021/12/03 19:39:14;;;;;;;2.40;2.20;;;6.80;96.10;;;;;;4961845;28;20105;-90
2021/12/03 19:44:15;;;;;;;2.17;1.98;;;6.80;96.00;;;;;;4972225;28;20270;-89
2021/12/03 19:46:46;;;;;;;2.72;2.10;;;6.80;96.00;;;;;;4970674;28;20368;-90
2021/12/03 19:51:58;;;;;;;3.67;2.83;;;6.80;95.90;;;;;;4963028;28;20472;-90
2021/12/03 19:54:25;;;;;;;2.78;2.35;;;6.90;96.00;;;;;;4959713;28;20117;-91
2021/12/03 19:56:51;;;;;;;2.33;2.13;;;6.80;96.00;;;;;;4973107;28;20031;-90
2021/12/03 19:59:18;;;;;;;2.15;1.95;;;6.80;96.00;;;;;;4971924;28;20354;-90
2021/12/03 20:01:46;;;;;;;2.08;1.98;;;6.90;96.10;;;;;;4977954;28;20121;-89
2021/12/03 20:04:13;;;;;;;2.25;2.00;;;6.90;96.20;;;;;;4979094;28;20235;-89
2021/12/03 20:06:43;;;;;;;3.22;2.67;;;6.90;96.20;;;;;;4970544;28;20499;-91
2021/12/03 20:09:22;;;;;;;2.35;2.15;;;6.90;96.20;;;;;;4961397;28;20432;-90
2021/12/03 20:11:53;;;;;;;2.45;2.25;;;6.90;96.20;;;;;;4982159;28;20498;-89
2021/12/03 20:14:22;;;;;;;2.60;2.40;;;6.90;96.20;;;;;;4969301;28;20057;-90
2021/12/03 20:17:32;;;;;;;2.45;2.22;;;6.90;96.20;;;;;;4972821;28;20034;-90
2021/12/03 20:19:39;;;;;;;3.47;3.08;;;6.90;96.20;;;;;;4967553;28;20391;-90
2021/12/03 20:22:19;;;;;;;4.93;3.15;;;6.90;96.10;;;;;;4981738;28;20041;-90
2021/12/03 20:27:17;;;;;;;3.28;2.83;;;6.90;96.10;;;;;;4975973;28;20041;-91
2021/12/03 20:29:52;;;;;;;3.55;2.88;;;6.90;96.10;;;;;;4948645;28;20057;-88
2021/12/03 20:32:24;;;;;;;4.85;3.08;;;6.90;96.10;;;;;;4958985;28;20030;-91
2021/12/03 20:37:25;;;;;;;3.33;2.97;;;6.90;96.10;;;;;;4967637;28;20152;-90